Time;durP1;ratioP1;P1;durP2;ratioP2;P2;SDS_P1;SDS_P2;PMS_P1;PMS_P2;Temp;Humidity;BMP_temperature;BMP_pressure;BME280_temperature;BME280_humidity;BME280_pressure;Samples;Min_cycle;Max_cycle;Signal;HPM_P1;HPM_P2
2021/12/09 00:01:03;;;;;;;;;85.50;70.00;6.10;63.80;;;;;;5056867;28;8868;-66
2021/12/09 00:03:32;;;;;;;;;83.25;68.50;5.60;65.30;;;;;;5056552;28;8791;-67
2021/12/09 00:06:00;;;;;;;;;79.25;63.50;5.60;65.80;;;;;;5056251;28;8830;-67
2021/12/09 00:08:28;;;;;;;;;83.75;68.00;5.70;65.60;;;;;;5056636;28;8876;-67
2021/12/09 00:10:56;;;;;;;;;81.50;67.75;5.30;67.00;;;;;;5056576;28;8775;-68
2021/12/09 00:13:23;;;;;;;;;89.50;75.00;5.30;67.70;;;;;;5056280;28;8806;-68
2021/12/09 00:15:49;;;;;;;;;89.25;75.00;5.20;68.10;;;;;;5054637;28;8881;-69
2021/12/09 00:18:16;;;;;;;;;94.50;77.25;4.80;69.90;;;;;;5056552;28;8778;-69
2021/12/09 00:20:42;;;;;;;;;91.00;77.50;5.20;68.70;;;;;;5056510;28;8759;-69
2021/12/09 00:23:08;;;;;;;;;92.00;77.25;5.40;67.80;;;;;;5056452;28;8771;-68
2021/12/09 00:25:35;;;;;;;;;91.50;79.25;5.90;65.60;;;;;;5055581;28;9451;-69
2021/12/09 00:28:02;;;;;;;;;91.00;73.75;6.00;65.30;;;;;;5056078;28;8798;-68
2021/12/09 00:30:31;;;;;;;;;92.50;77.00;6.10;64.30;;;;;;5056321;28;8775;-68
2021/12/09 00:32:59;;;;;;;;;78.50;65.75;6.30;64.00;;;;;;5056010;28;8775;-69
2021/12/09 00:35:35;;;;;;;;;90.00;75.25;6.40;63.60;;;;;;5056253;28;8844;-69
2021/12/09 00:38:07;;;;;;;;;88.75;72.75;6.40;63.40;;;;;;5056098;28;8823;-67
2021/12/09 00:40:34;;;;;;;;;82.50;66.50;6.30;63.40;;;;;;5055904;28;8794;-68
2021/12/09 00:43:00;;;;;;;;;88.25;74.25;6.30;63.40;;;;;;5056056;28;8771;-68
2021/12/09 00:45:26;;;;;;;;;87.00;72.00;5.90;64.70;;;;;;5055992;28;8807;-68
2021/12/09 00:47:53;;;;;;;;;86.25;71.75;6.10;64.10;;;;;;5055884;28;9444;-69
2021/12/09 00:50:21;;;;;;;;;84.25;69.00;6.10;63.80;;;;;;5055936;28;9479;-68
2021/12/09 00:52:47;;;;;;;;;83.25;66.75;6.00;63.90;;;;;;5055883;28;8799;-69
2021/12/09 00:55:15;;;;;;;;;83.50;68.25;5.90;64.40;;;;;;5055631;28;8759;-68
2021/12/09 00:57:42;;;;;;;;;73.50;61.75;5.90;64.60;;;;;;5055610;28;8778;-68
2021/12/09 01:00:14;;;;;;;;;84.50;68.50;6.00;64.30;;;;;;5055505;28;8767;-68
2021/12/09 01:02:40;;;;;;;;;83.75;68.00;6.10;64.10;;;;;;5055463;28;8787;-69
2021/12/09 01:05:08;;;;;;;;;85.00;68.50;6.20;63.40;;;;;;5055636;28;8864;-69
2021/12/09 01:07:34;;;;;;;;;86.25;71.25;6.20;63.40;;;;;;5055089;28;8839;-67
2021/12/09 01:09:59;;;;;;;;;85.00;70.25;6.40;62.90;;;;;;5055824;28;8775;-69
2021/12/09 01:12:25;;;;;;;;;85.75;69.25;6.40;63.00;;;;;;5055224;28;8901;-67
2021/12/09 01:14:52;;;;;;;;;85.75;69.50;6.40;62.50;;;;;;5055181;28;8828;-69
2021/12/09 01:17:18;;;;;;;;;92.50;75.25;6.40;62.60;;;;;;5055111;28;8779;-68
2021/12/09 01:19:44;;;;;;;;;90.50;76.25;6.30;63.20;;;;;;5055156;28;8763;-68
2021/12/09 01:22:10;;;;;;;;;89.75;72.75;6.20;63.10;;;;;;5055065;28;8771;-68
2021/12/09 01:24:36;;;;;;;;;93.00;77.50;6.20;64.70;;;;;;5054982;28;8787;-69
2021/12/09 01:27:03;;;;;;;;;46.00;42.50;6.10;63.80;;;;;;5055166;28;8891;-65
2021/12/09 01:29:41;;;;;;;;;92.25;79.00;6.20;63.60;;;;;;5055010;28;8828;-68
2021/12/09 01:32:10;;;;;;;;;88.00;71.00;6.30;63.40;;;;;;5054859;28;8778;-69
2021/12/09 01:34:37;;;;;;;;;84.50;69.00;6.20;63.70;;;;;;5054911;28;8795;-69
2021/12/09 01:37:06;;;;;;;;;79.00;65.25;6.20;63.50;;;;;;5054160;28;8862;-68
2021/12/09 01:39:33;;;;;;;;;82.25;67.00;6.00;64.00;;;;;;5055429;28;8884;-67
2021/12/09 01:41:59;;;;;;;;;83.25;67.50;5.90;64.50;;;;;;5054659;28;8921;-68
2021/12/09 01:44:26;;;;;;;;;77.75;65.25;6.30;63.60;;;;;;5054702;28;8775;-67
2021/12/09 01:46:52;;;;;;;;;76.75;64.00;6.10;64.10;;;;;;5053634;28;8837;-67
2021/12/09 01:49:18;;;;;;;;;80.75;65.75;5.40;68.10;;;;;;5054605;28;8797;-67
2021/12/09 01:51:46;;;;;;;;;77.00;64.50;5.20;68.80;;;;;;5054853;28;8763;-68
2021/12/09 01:54:13;;;;;;;;;72.25;60.75;5.70;67.40;;;;;;5054771;28;9530;-68
2021/12/09 01:56:39;;;;;;;;;83.75;68.00;5.40;68.90;;;;;;5054707;28;8794;-68
2021/12/09 01:59:06;;;;;;;;;82.00;67.00;5.60;68.50;;;;;;5054436;28;8775;-67
2021/12/09 02:01:34;;;;;;;;;83.25;67.00;5.90;67.30;;;;;;5054357;28;8806;-66
2021/12/09 02:04:04;;;;;;;;;82.00;66.75;6.30;66.40;;;;;;5054496;28;8740;-68
2021/12/09 02:06:30;;;;;;;;;82.00;67.00;6.50;65.50;;;;;;5054036;28;8868;-67
2021/12/09 02:08:56;;;;;;;;;86.75;70.50;6.50;65.40;;;;;;5054650;28;8818;-68
2021/12/09 02:11:22;;;;;;;;;79.25;65.00;6.40;65.40;;;;;;5054502;28;8763;-67
2021/12/09 02:13:54;;;;;;;;;82.50;68.00;6.20;66.50;;;;;;5054285;28;8786;-67
2021/12/09 02:16:21;;;;;;;;;79.25;66.00;6.40;66.30;;;;;;5054459;28;8767;-68
2021/12/09 02:18:47;;;;;;;;;79.25;65.00;6.50;66.10;;;;;;5054295;28;8790;-68
2021/12/09 02:21:22;;;;;;;;;79.00;64.25;6.40;66.00;;;;;;5054093;28;8763;-67
2021/12/09 02:23:54;;;;;;;;;79.75;64.75;6.60;65.60;;;;;;5054218;28;8788;-68
2021/12/09 02:26:24;;;;;;;;;76.00;62.75;6.50;64.60;;;;;;5054238;28;8766;-68
2021/12/09 02:28:52;;;;;;;;;77.50;64.25;6.30;65.60;;;;;;5054379;28;9516;-67
2021/12/09 02:31:18;;;;;;;;;80.00;66.00;6.10;66.90;;;;;;5054031;28;8759;-68
2021/12/09 02:33:44;;;;;;;;;78.50;64.25;6.30;67.00;;;;;;5054372;28;8779;-67
2021/12/09 02:36:10;;;;;;;;;74.75;61.75;6.40;66.30;;;;;;5054028;28;8817;-68
2021/12/09 02:38:43;;;;;;;;;78.25;65.00;6.50;65.60;;;;;;5054239;28;8827;-68
2021/12/09 02:41:14;;;;;;;;;76.25;63.50;6.70;65.30;;;;;;5054278;28;8767;-68
2021/12/09 02:43:40;;;;;;;;;77.25;64.50;6.70;65.10;;;;;;5054307;28;8771;-69
2021/12/09 02:46:06;;;;;;;;;67.50;56.50;6.40;66.60;;;;;;5053849;28;8803;-67
2021/12/09 02:48:32;;;;;;;;;73.75;62.00;6.60;65.70;;;;;;5056261;28;8860;-68
2021/12/09 02:51:00;;;;;;;;;72.75;60.25;6.50;66.30;;;;;;5058165;28;8790;-67
2021/12/09 02:53:27;;;;;;;;;72.75;60.00;6.10;67.40;;;;;;5066852;28;8800;-68
2021/12/09 02:55:54;;;;;;;;;76.75;62.75;5.90;68.70;;;;;;5077903;28;8795;-68
2021/12/09 02:58:19;;;;;;;;;71.75;60.00;6.00;68.80;;;;;;5077920;28;8764;-67
2021/12/09 03:01:04;;;;;;;;;72.50;59.75;6.10;68.20;;;;;;5077736;28;8791;-68
2021/12/09 03:03:30;;;;;;;;;69.75;58.25;6.10;67.70;;;;;;5077717;28;8800;-68
2021/12/09 03:05:57;;;;;;;;;68.50;58.00;6.10;68.30;;;;;;5077725;28;8805;-68
2021/12/09 03:08:34;;;;;;;;;68.50;57.25;6.40;67.70;;;;;;5077843;28;8804;-68
2021/12/09 03:11:13;;;;;;;;;68.50;57.50;6.70;66.00;;;;;;5077918;28;8829;-68
2021/12/09 03:13:40;;;;;;;;;67.50;57.00;6.60;65.70;;;;;;5077888;28;8860;-68
2021/12/09 03:16:07;;;;;;;;;65.00;55.00;6.50;66.50;;;;;;5076492;28;8808;-69
2021/12/09 03:18:53;;;;;;;;;65.00;55.25;6.70;65.70;;;;;;5077752;28;8765;-68
2021/12/09 03:21:26;;;;;;;;;63.50;53.00;6.70;66.40;;;;;;5077415;28;8764;-68
2021/12/09 03:23:53;;;;;;;;;62.75;53.00;6.40;67.70;;;;;;5077691;28;8760;-68
2021/12/09 03:26:25;;;;;;;;;66.75;56.25;6.50;68.00;;;;;;5077507;28;8756;-68
2021/12/09 03:28:53;;;;;;;;;75.00;61.75;6.50;68.30;;;;;;5077331;28;8775;-67
2021/12/09 03:31:19;;;;;;;;;65.50;56.00;6.50;67.70;;;;;;5077426;28;8752;-69
2021/12/09 03:33:45;;;;;;;;;65.50;55.50;6.70;67.00;;;;;;5077167;28;8772;-67
2021/12/09 03:36:11;;;;;;;;;62.50;53.50;7.00;65.20;;;;;;5077094;28;8777;-68
2021/12/09 03:38:36;;;;;;;;;63.00;54.00;6.90;66.50;;;;;;5077281;28;8863;-66
2021/12/09 03:41:03;;;;;;;;;61.50;52.00;7.00;66.00;;;;;;5077244;28;8768;-69
2021/12/09 03:43:29;;;;;;;;;62.25;52.75;6.70;67.00;;;;;;5077260;28;8780;-69
2021/12/09 03:45:55;;;;;;;;;58.75;51.00;6.60;67.30;;;;;;5076993;28;8776;-69
2021/12/09 03:48:23;;;;;;;;;61.75;52.00;6.80;67.20;;;;;;5077137;28;8796;-68
2021/12/09 03:50:51;;;;;;;;;56.50;49.00;7.00;66.90;;;;;;5077009;28;8767;-69
2021/12/09 03:53:17;;;;;;;;;65.25;53.25;7.00;66.60;;;;;;5076843;28;8780;-67
2021/12/09 03:55:42;;;;;;;;;62.75;51.25;6.40;68.20;;;;;;5076776;28;8799;-67
2021/12/09 03:58:08;;;;;;;;;59.25;51.00;6.50;67.90;;;;;;5076971;28;8799;-68
2021/12/09 04:00:35;;;;;;;;;60.00;50.50;6.50;68.10;;;;;;5075969;28;8803;-68
2021/12/09 04:03:01;;;;;;;;;65.00;55.75;6.80;67.40;;;;;;5076715;28;8761;-67
2021/12/09 04:05:27;;;;;;;;;61.50;52.75;6.20;69.40;;;;;;5076714;28;8814;-68
2021/12/09 04:07:53;;;;;;;;;57.00;48.25;6.00;70.80;;;;;;5076594;28;8828;-68
2021/12/09 04:10:21;;;;;;;;;58.75;50.75;5.90;70.90;;;;;;5076734;28;8920;-68
2021/12/09 04:12:47;;;;;;;;;61.50;52.00;5.90;71.00;;;;;;5076733;28;8784;-68
2021/12/09 04:15:13;;;;;;;;;66.00;56.00;5.90;71.20;;;;;;5076741;28;8784;-67
2021/12/09 04:17:39;;;;;;;;;64.00;55.00;5.70;71.90;;;;;;5076675;28;8756;-68
2021/12/09 04:20:07;;;;;;;;;63.00;54.00;6.00;70.90;;;;;;5076585;28;8764;-69
2021/12/09 04:22:33;;;;;;;;;62.50;53.50;6.40;69.40;;;;;;5076271;28;8787;-68
2021/12/09 04:24:59;;;;;;;;;61.50;51.50;7.00;66.70;;;;;;5076250;28;8768;-68
2021/12/09 04:27:25;;;;;;;;;59.00;50.00;7.20;66.20;;;;;;5076358;28;8796;-69
2021/12/09 04:29:52;;;;;;;;;59.50;51.00;6.90;67.00;;;;;;5076402;28;8866;-69
2021/12/09 04:32:19;;;;;;;;;53.75;46.75;6.70;68.40;;;;;;5076049;28;8772;-68
2021/12/09 04:34:45;;;;;;;;;57.25;50.00;6.80;67.80;;;;;;5075002;28;9462;-67
2021/12/09 04:37:12;;;;;;;;;57.75;50.25;6.70;67.90;;;;;;5075847;28;8877;-68
2021/12/09 04:39:38;;;;;;;;;59.00;50.25;6.70;68.80;;;;;;5070752;28;8772;-69
2021/12/09 04:42:05;;;;;;;;;52.25;45.50;6.50;68.70;;;;;;5061093;28;8776;-68
2021/12/09 04:44:31;;;;;;;;;56.25;48.75;6.80;67.70;;;;;;5075802;28;8745;-68
2021/12/09 04:46:57;;;;;;;;;57.00;49.25;7.30;65.50;;;;;;5055741;28;8929;-69
2021/12/09 04:49:23;;;;;;;;;54.50;46.75;7.10;66.20;;;;;;5054747;28;8787;-68
2021/12/09 04:51:49;;;;;;;;;61.00;50.50;7.10;66.20;;;;;;5055986;28;8759;-69
2021/12/09 04:54:15;;;;;;;;;56.25;48.25;6.90;66.90;;;;;;5055719;28;8789;-69
2021/12/09 04:56:41;;;;;;;;;57.00;49.50;6.90;66.90;;;;;;5055615;28;8771;-68
2021/12/09 04:59:08;;;;;;;;;62.00;51.00;7.20;66.80;;;;;;5055776;28;8848;-69
2021/12/09 05:01:35;;;;;;;;;56.50;49.50;6.90;67.30;;;;;;5055771;28;9476;-68
2021/12/09 05:04:02;;;;;;;;;54.75;47.25;7.30;66.10;;;;;;5055502;28;8809;-69
2021/12/09 05:06:29;;;;;;;;;57.00;48.50;7.30;65.40;;;;;;5055116;28;8870;-68
2021/12/09 05:09:05;;;;;;;;;58.50;50.50;7.20;66.20;;;;;;5055757;28;8798;-69
2021/12/09 05:14:04;;;;;;;;;51.75;45.75;7.50;65.30;;;;;;5055310;28;8755;-69
2021/12/09 05:16:31;;;;;;;;;49.00;44.00;7.30;65.90;;;;;;5055479;28;8889;-68
2021/12/09 05:18:58;;;;;;;;;56.75;50.00;7.30;66.60;;;;;;5055149;28;8885;-69
2021/12/09 05:21:39;;;;;;;;;54.50;47.50;7.60;65.30;;;;;;5055360;28;8771;-68
2021/12/09 05:24:10;;;;;;;;;52.50;46.00;7.80;64.40;;;;;;5055412;28;8771;-68
2021/12/09 05:26:45;;;;;;;;;57.75;49.00;7.50;65.70;;;;;;5055046;28;9418;-68
2021/12/09 05:29:12;;;;;;;;;58.25;50.25;7.70;65.10;;;;;;5055022;28;9417;-69
2021/12/09 05:34:23;;;;;;;;;59.75;50.00;7.90;64.60;;;;;;5054993;28;8774;-69
2021/12/09 05:36:49;;;;;;;;;52.25;45.50;7.80;64.00;;;;;;5054907;28;8806;-68
2021/12/09 05:39:16;;;;;;;;;56.00;47.25;8.00;64.00;;;;;;5060686;28;8914;-66
2021/12/09 05:41:43;;;;;;;;;58.50;50.25;8.10;63.30;;;;;;5061748;28;8779;-69
2021/12/09 05:44:11;;;;;;;;;52.25;45.75;8.00;64.10;;;;;;5062902;28;8845;-69
2021/12/09 05:46:39;;;;;;;;;54.25;47.25;7.80;64.50;;;;;;5059796;28;8814;-68
2021/12/09 05:49:07;;;;;;;;;57.00;48.50;7.70;66.30;;;;;;5057392;28;8818;-68
2021/12/09 05:51:33;;;;;;;;;59.75;51.25;7.60;65.10;;;;;;5066115;28;8777;-68
2021/12/09 05:53:59;;;;;;;;;47.25;44.00;7.60;65.80;;;;;;5057363;28;8775;-67
2021/12/09 05:56:26;;;;;;;;;40.00;39.00;7.50;65.80;;;;;;5074752;28;8780;-68
2021/12/09 05:58:52;;;;;;;;;50.50;45.00;7.50;65.70;;;;;;5074854;28;8826;-65
2021/12/09 06:01:18;;;;;;;;;58.75;48.50;7.70;65.50;;;;;;5074371;28;8784;-65
2021/12/09 06:03:44;;;;;;;;;53.25;47.00;7.60;65.70;;;;;;5070771;28;8877;-64
2021/12/09 06:06:11;;;;;;;;;61.00;47.75;7.90;64.90;;;;;;5074187;28;8951;-62
2021/12/09 06:08:39;;;;;;;;;62.50;52.75;7.60;65.60;;;;;;5074244;28;8817;-62
2021/12/09 06:11:06;;;;;;;;;63.00;52.50;7.80;65.00;;;;;;5074372;28;8768;-62
2021/12/09 06:13:33;;;;;;;;;66.50;56.50;8.00;64.00;;;;;;5074266;28;8780;-62
2021/12/09 06:15:59;;;;;;;;;66.75;56.50;7.80;64.60;;;;;;5074250;28;8787;-62
2021/12/09 06:18:26;;;;;;;;;76.50;63.00;7.80;65.00;;;;;;5074241;28;8851;-62
2021/12/09 06:20:51;;;;;;;;;87.25;72.25;7.70;65.50;;;;;;5074385;28;8757;-62
2021/12/09 06:23:17;;;;;;;;;76.50;63.25;7.40;66.70;;;;;;5073548;28;8776;-62
2021/12/09 06:25:44;;;;;;;;;79.50;63.75;7.00;69.10;;;;;;5074417;28;8767;-63
2021/12/09 06:28:10;;;;;;;;;82.50;67.75;7.00;69.30;;;;;;5074175;28;8839;-63
2021/12/09 06:30:36;;;;;;;;;77.75;63.50;7.40;67.80;;;;;;5074480;28;8860;-63
2021/12/09 06:33:02;;;;;;;;;79.00;64.75;7.70;66.30;;;;;;5074232;28;8913;-62
2021/12/09 06:35:28;;;;;;;;;70.25;59.00;8.10;64.60;;;;;;5074063;28;8777;-62
2021/12/09 06:37:57;;;;;;;;;72.75;60.00;8.20;63.90;;;;;;5074098;28;8977;-62
2021/12/09 06:40:24;;;;;;;;;66.25;56.00;7.70;65.50;;;;;;5074334;28;8768;-63
2021/12/09 06:42:51;;;;;;;;;79.00;62.00;7.30;67.00;;;;;;5074358;28;8764;-63
2021/12/09 06:45:20;;;;;;;;;69.75;58.25;7.30;67.90;;;;;;5074306;28;9493;-69
2021/12/09 06:47:46;;;;;;;;;67.25;55.00;7.80;66.30;;;;;;5074023;28;9454;-68
2021/12/09 06:50:16;;;;;;;;;71.00;58.00;7.90;66.30;;;;;;5074054;28;8768;-69
2021/12/09 06:52:42;;;;;;;;;47.25;43.00;8.20;64.90;;;;;;5073641;28;8760;-69
2021/12/09 06:55:11;;;;;;;;;75.00;60.00;8.00;65.80;;;;;;5072853;28;8915;-68
2021/12/09 06:57:38;;;;;;;;;68.75;57.25;8.30;64.80;;;;;;5074010;28;8780;-68
2021/12/09 07:00:27;;;;;;;;;68.25;54.75;8.30;64.70;;;;;;5072852;28;8791;-69
2021/12/09 07:02:54;;;;;;;;;75.50;62.50;8.40;64.10;;;;;;5073898;28;8752;-69
2021/12/09 07:05:23;;;;;;;;;82.25;66.00;8.50;63.20;;;;;;5073855;28;8791;-69
2021/12/09 07:07:50;;;;;;;;;82.00;66.00;8.30;64.10;;;;;;5073685;28;8820;-69
2021/12/09 07:10:17;;;;;;;;;79.75;64.75;8.70;62.90;;;;;;5073858;28;8776;-68
2021/12/09 07:12:43;;;;;;;;;82.75;66.00;8.70;62.40;;;;;;5073952;28;8749;-68
2021/12/09 07:15:13;;;;;;;;;82.50;67.00;8.80;61.70;;;;;;5074055;28;8867;-70
2021/12/09 07:17:39;;;;;;;;;85.00;66.50;8.70;62.00;;;;;;5073741;28;8760;-69
2021/12/09 07:20:09;;;;;;;;;73.00;60.00;8.70;61.40;;;;;;5073099;28;8794;-68
2021/12/09 07:22:36;;;;;;;;;65.25;55.75;8.50;61.50;;;;;;5073848;28;8841;-70
2021/12/09 07:25:03;;;;;;;;;67.00;55.50;8.30;62.40;;;;;;5073715;28;8772;-68
2021/12/09 07:27:29;;;;;;;;;65.75;53.50;8.50;61.90;;;;;;5073514;28;8804;-68
2021/12/09 07:29:55;;;;;;;;;71.25;57.25;8.40;61.90;;;;;;5073420;28;8780;-68
2021/12/09 07:32:21;;;;;;;;;70.50;55.75;8.40;62.40;;;;;;5073604;28;8756;-69
2021/12/09 07:34:47;;;;;;;;;74.50;59.00;8.40;62.30;;;;;;5074458;28;8765;-68
2021/12/09 07:37:13;;;;;;;;;66.75;53.75;8.60;62.50;;;;;;5076978;28;8799;-67
2021/12/09 07:39:39;;;;;;;;;69.25;53.50;8.70;62.40;;;;;;5077233;28;8879;-68
2021/12/09 07:42:05;;;;;;;;;70.75;57.00;8.50;62.70;;;;;;5077122;28;9453;-68
2021/12/09 07:44:32;;;;;;;;;72.25;58.75;8.00;63.90;;;;;;5075939;28;8790;-68
2021/12/09 07:46:59;;;;;;;;;72.50;56.25;8.30;63.10;;;;;;5076813;28;8812;-67
2021/12/09 07:49:26;;;;;;;;;71.25;57.50;8.10;63.50;;;;;;5077068;28;9580;-66
2021/12/09 07:51:53;;;;;;;;;68.00;56.25;8.10;63.90;;;;;;5076679;28;8768;-68
2021/12/09 07:54:19;;;;;;;;;68.00;51.75;8.20;63.80;;;;;;5076981;28;8853;-66
2021/12/09 07:56:46;;;;;;;;;66.50;54.25;8.40;63.00;;;;;;5076655;28;8780;-66
2021/12/09 07:59:12;;;;;;;;;65.25;53.25;8.60;62.40;;;;;;5076547;28;8795;-67
2021/12/09 08:01:39;;;;;;;;;71.25;56.25;8.90;61.00;;;;;;5076561;28;8798;-65
2021/12/09 08:04:05;;;;;;;;;73.50;59.75;8.50;62.00;;;;;;5076836;28;8769;-66
2021/12/09 08:06:31;;;;;;;;;70.25;55.25;8.50;62.50;;;;;;5076375;28;8847;-66
2021/12/09 08:08:58;;;;;;;;;71.75;58.75;8.30;63.40;;;;;;5076799;28;8816;-66
2021/12/09 08:11:23;;;;;;;;;77.00;63.00;8.20;63.60;;;;;;5076251;28;8760;-67
2021/12/09 08:13:49;;;;;;;;;81.00;63.25;8.20;63.60;;;;;;5076477;28;9542;-70
2021/12/09 08:16:16;;;;;;;;;89.75;76.75;8.20;63.20;;;;;;5076623;28;8791;-70
2021/12/09 08:18:56;;;;;;;;;77.00;63.75;8.00;64.00;;;;;;5076665;28;8853;-69
2021/12/09 08:21:25;;;;;;;;;95.75;82.00;8.00;64.60;;;;;;5076366;28;8768;-71
2021/12/09 08:23:52;;;;;;;;;85.00;75.25;8.00;64.80;;;;;;5076517;28;8776;-69
2021/12/09 08:26:20;;;;;;;;;86.50;76.00;8.20;63.80;;;;;;5076393;28;8772;-69
2021/12/09 08:28:46;;;;;;;;;72.00;60.00;8.10;64.30;;;;;;5076207;28;8780;-69
2021/12/09 08:31:12;;;;;;;;;68.75;56.75;8.20;63.90;;;;;;5076242;28;8768;-70
2021/12/09 08:33:38;;;;;;;;;74.25;61.25;8.50;62.30;;;;;;5075996;28;8760;-67
2021/12/09 08:36:04;;;;;;;;;85.75;74.00;8.50;62.20;;;;;;5074913;28;8831;-68
2021/12/09 08:38:30;;;;;;;;;85.00;73.25;8.30;62.70;;;;;;5075136;28;8824;-69
2021/12/09 08:40:56;;;;;;;;;76.75;61.00;8.30;62.70;;;;;;5075934;28;8792;-70
2021/12/09 08:43:23;;;;;;;;;69.25;57.00;8.20;62.80;;;;;;5076150;28;8768;-71
2021/12/09 08:45:53;;;;;;;;;74.75;62.50;8.30;62.80;;;;;;5075252;28;8768;-69
2021/12/09 08:48:19;;;;;;;;;67.75;56.50;8.50;61.80;;;;;;5075297;28;8820;-69
2021/12/09 08:50:45;;;;;;;;;63.00;54.75;8.30;63.20;;;;;;5074597;28;8757;-69
2021/12/09 08:53:15;;;;;;;;;63.00;54.00;8.40;63.10;;;;;;5074405;28;8772;-68
2021/12/09 08:55:42;;;;;;;;;63.25;52.00;8.30;64.00;;;;;;5074619;28;8783;-69
2021/12/09 08:58:09;;;;;;;;;68.00;57.00;8.30;63.90;;;;;;5074546;28;8752;-69
2021/12/09 09:00:36;;;;;;;;;62.25;51.75;8.30;64.00;;;;;;5074281;28;8749;-70
2021/12/09 09:03:02;;;;;;;;;66.25;55.75;8.70;63.00;;;;;;5074199;28;8749;-67
2021/12/09 09:05:29;;;;;;;;;66.00;55.50;8.60;62.40;;;;;;5074238;28;9423;-69
2021/12/09 09:07:56;;;;;;;;;62.50;53.25;8.30;63.40;;;;;;5074041;28;8797;-70
2021/12/09 09:10:25;;;;;;;;;61.50;51.50;8.40;63.60;;;;;;5073977;28;8795;-69
2021/12/09 09:12:51;;;;;;;;;62.50;53.00;8.70;62.80;;;;;;5074338;28;8765;-69
2021/12/09 09:15:21;;;;;;;;;39.00;34.00;8.80;61.60;;;;;;5073749;28;8789;-70
2021/12/09 09:17:48;;;;;;;;;64.00;53.00;8.90;61.80;;;;;;5075007;28;8784;-67
2021/12/09 09:20:18;;;;;;;;;60.00;49.50;9.10;60.80;;;;;;5074681;28;8761;-65
2021/12/09 09:22:43;;;;;;;;;56.00;48.50;9.00;61.50;;;;;;5074935;28;8776;-68
2021/12/09 09:25:17;;;;;;;;;60.00;51.25;8.90;61.50;;;;;;5074798;28;8757;-66
2021/12/09 09:27:46;;;;;;;;;61.50;53.25;8.90;61.70;;;;;;5075091;28;8826;-68
2021/12/09 09:30:17;;;;;;;;;66.75;53.75;9.10;61.50;;;;;;5074739;28;8761;-67
2021/12/09 09:32:44;;;;;;;;;59.00;50.50;9.60;60.60;;;;;;5075234;28;8745;-67
2021/12/09 09:35:10;;;;;;;;;62.50;53.00;9.80;59.80;;;;;;5074749;28;8773;-65
2021/12/09 09:37:36;;;;;;;;;70.50;51.50;9.50;61.20;;;;;;5074603;28;8795;-67
2021/12/09 09:40:14;;;;;;;;;58.75;49.50;9.20;60.80;;;;;;5074779;28;8830;-67
2021/12/09 09:45:10;;;;;;;;;56.75;48.75;9.30;61.70;;;;;;5074282;28;8772;-69
2021/12/09 09:47:36;;;;;;;;;59.75;47.00;9.10;62.30;;;;;;5074048;28;8804;-68
2021/12/09 09:50:04;;;;;;;;;45.50;41.75;9.20;62.00;;;;;;5074532;28;8761;-67
2021/12/09 09:52:30;;;;;;;;;54.50;45.50;9.10;61.50;;;;;;5074791;28;8788;-69
2021/12/09 09:54:57;;;;;;;;;50.00;43.50;9.30;61.80;;;;;;5074571;28;9189;-70
2021/12/09 09:57:25;;;;;;;;;56.50;48.00;9.50;61.70;;;;;;5073913;28;8772;-68
2021/12/09 09:59:51;;;;;;;;;56.75;48.50;9.60;61.50;;;;;;5074518;28;8761;-68
2021/12/09 10:02:17;;;;;;;;;53.50;46.00;9.60;62.00;;;;;;5074314;28;8861;-67
2021/12/09 10:04:46;;;;;;;;;56.75;48.00;9.70;61.40;;;;;;5074192;28;8781;-66
2021/12/09 10:07:19;;;;;;;;;58.50;50.50;9.70;61.40;;;;;;5074091;28;8968;-68
2021/12/09 10:09:46;;;;;;;;;52.00;44.25;9.90;60.90;;;;;;5074462;28;8748;-69
2021/12/09 10:12:13;;;;;;;;;54.00;45.75;9.60;61.80;;;;;;5073327;28;8761;-69
2021/12/09 10:14:39;;;;;;;;;48.75;42.50;9.60;61.80;;;;;;5074348;28;8760;-74
2021/12/09 10:17:09;;;;;;;;;56.75;48.75;9.50;62.80;;;;;;5073802;28;8868;-71
2021/12/09 10:19:39;;;;;;;;;55.00;47.25;9.80;61.80;;;;;;5074275;28;8764;-66
2021/12/09 10:22:17;;;;;;;;;53.50;46.25;9.70;61.80;;;;;;5074561;28;8788;-72
2021/12/09 10:24:46;;;;;;;;;58.50;50.25;10.00;61.30;;;;;;5074554;28;8870;-67
2021/12/09 10:27:33;;;;;;;;;64.25;52.50;10.10;60.90;;;;;;5073994;28;8820;-70
2021/12/09 10:30:11;;;;;;;;;63.75;53.00;10.30;63.30;;;;;;5074181;28;8764;-67
2021/12/09 10:32:37;;;;;;;;;67.25;55.00;10.30;64.20;;;;;;5074074;28;8787;-70
2021/12/09 10:35:16;;;;;;;;;78.25;62.50;10.20;61.90;;;;;;5067827;28;8779;-68
2021/12/09 10:37:47;;;;;;;;;70.25;57.00;10.30;61.60;;;;;;5053101;28;8791;-69
2021/12/09 10:40:14;;;;;;;;;66.50;55.00;10.20;61.60;;;;;;5054100;28;8759;-71
2021/12/09 10:42:48;;;;;;;;;61.50;52.50;9.70;63.30;;;;;;5054041;28;8849;-68
2021/12/09 10:45:14;;;;;;;;;63.50;52.25;9.80;62.00;;;;;;5054069;28;8774;-67
2021/12/09 10:47:54;;;;;;;;;66.25;55.00;9.60;62.90;;;;;;5053701;28;8888;-68
2021/12/09 10:50:36;;;;;;;;;73.00;59.00;10.00;62.00;;;;;;5054051;28;8779;-68
2021/12/09 10:55:47;;;;;;;;;74.50;60.25;9.70;62.90;;;;;;5053865;28;8770;-65
2021/12/09 10:58:16;;;;;;;;;71.00;59.25;9.70;62.80;;;;;;5055658;28;8775;-64
2021/12/09 11:00:46;;;;;;;;;79.00;64.50;10.10;62.20;;;;;;5073566;28;8772;-66
2021/12/09 11:03:16;;;;;;;;;80.00;65.50;10.00;62.20;;;;;;5073684;28;9583;-66
2021/12/09 11:05:45;;;;;;;;;86.25;77.75;10.10;63.10;;;;;;5073568;28;8815;-66
2021/12/09 11:08:14;;;;;;;;;89.00;81.25;10.00;62.90;;;;;;5073838;28;8836;-66
2021/12/09 11:10:46;;;;;;;;;89.25;82.50;10.10;62.90;;;;;;5077539;28;8780;-69
2021/12/09 11:13:12;;;;;;;;;86.75;76.25;9.90;63.70;;;;;;5077949;28;8830;-67
2021/12/09 11:15:46;;;;;;;;;83.25;75.00;9.60;64.80;;;;;;5077726;28;8760;-66
2021/12/09 11:18:34;;;;;;;;;83.00;73.50;10.10;63.70;;;;;;5077097;28;8794;-67
2021/12/09 11:21:04;;;;;;;;;75.50;62.75;9.70;64.50;;;;;;5077483;28;8780;-67
2021/12/09 11:24:01;;;;;;;;;76.00;64.00;9.50;65.50;;;;;;5077277;28;8881;-65
2021/12/09 11:27:02;;;;;;;;;85.75;68.50;9.90;64.90;;;;;;5076611;28;8816;-69
2021/12/09 11:29:43;;;;;;;;;72.00;59.00;10.00;64.20;;;;;;5074895;28;8863;-67
2021/12/09 11:32:23;;;;;;;;;73.75;60.00;10.10;64.10;;;;;;5074835;28;8778;-67
2021/12/09 11:35:02;;;;;;;;;82.50;72.00;10.50;62.50;;;;;;5074872;28;8793;-67
2021/12/09 11:40:23;;;;;;;;;71.25;58.50;10.50;63.40;;;;;;5075073;28;8772;-67
2021/12/09 11:42:59;;;;;;;;;70.75;58.50;10.80;61.20;;;;;;5074940;28;8762;-66
2021/12/09 11:45:31;;;;;;;;;67.00;56.25;11.10;60.70;;;;;;5074857;28;9539;-66
2021/12/09 11:47:59;;;;;;;;;88.75;81.75;11.20;60.70;;;;;;5074625;28;8849;-66
2021/12/09 11:50:28;;;;;;;;;88.25;85.25;11.50;58.90;;;;;;5074753;28;8758;-65
2021/12/09 11:52:56;;;;;;;;;104.00;100.25;11.90;58.20;;;;;;5074455;28;8758;-65
2021/12/09 11:55:29;;;;;;;;;82.00;69.75;11.40;59.40;;;;;;5057867;28;8774;-65
2021/12/09 11:58:03;;;;;;;;;86.00;77.25;11.80;58.90;;;;;;5074378;28;8771;-67
2021/12/09 12:13:04;;;;;;;;;107.25;104.50;12.00;60.90;;;;;;5073827;28;8744;-66
2021/12/09 12:21:25;;;;;;;;;116.75;115.00;11.40;64.40;;;;;;5072644;28;8753;-64
2021/12/09 12:38:49;;;;;;;;;89.50;82.50;10.90;68.50;;;;;;5072708;28;8842;-64
2021/12/09 12:40:35;;;;;;;;;83.75;74.25;10.90;68.40;;;;;;5063427;28;8756;-64
2021/12/09 12:43:20;;;;;;;;;84.50;74.75;11.10;67.90;;;;;;5071497;28;8777;-64
2021/12/09 12:48:43;;;;;;;;;81.25;69.00;10.70;69.10;;;;;;5073026;28;8796;-64
2021/12/09 12:53:57;;;;;;;;;88.75;80.00;10.90;68.50;;;;;;5073840;28;8733;-64
2021/12/09 12:56:32;;;;;;;;;91.00;85.50;11.20;67.70;;;;;;5021503;28;8776;-65
2021/12/09 12:59:09;;;;;;;;;85.00;75.00;11.10;68.40;;;;;;5071840;28;8749;-64
2021/12/09 13:01:44;;;;;;;;;86.00;74.25;11.20;68.20;;;;;;5073399;28;8780;-64
2021/12/09 13:10:20;;;;;;;;;65.25;55.00;10.90;69.70;;;;;;5069988;28;8760;-64
2021/12/09 13:12:56;;;;;;;;;76.00;63.75;10.60;69.70;;;;;;5072855;28;8873;-64
2021/12/09 13:15:30;;;;;;;;;81.00;70.50;9.80;73.70;;;;;;5071966;28;8761;-65
2021/12/09 13:18:04;;;;;;;;;85.00;75.75;9.70;73.90;;;;;;5071576;28;8749;-68
2021/12/09 13:20:33;;;;;;;;;89.75;78.50;10.20;72.40;;;;;;5074196;28;9434;-68
2021/12/09 13:23:20;;;;;;;;;89.00;80.25;10.20;72.60;;;;;;5070645;28;8776;-68
2021/12/09 13:26:27;;;;;;;;;89.50;81.50;10.20;72.80;;;;;;5071086;28;8798;-67
2021/12/09 13:29:01;;;;;;;;;83.25;74.00;10.10;73.40;;;;;;5072253;28;9522;-69
2021/12/09 13:31:46;;;;;;;;;87.00;75.50;9.90;73.90;;;;;;5062885;28;8812;-68
2021/12/09 13:34:21;;;;;;;;;90.75;85.25;10.20;73.50;;;;;;5074004;28;8797;-66
2021/12/09 13:37:33;;;;;;;;;88.50;83.00;10.50;72.40;;;;;;5074943;28;9183;-66
2021/12/09 13:48:12;;;;;;;;;90.00;83.25;10.70;71.40;;;;;;5074466;28;9363;-66
2021/12/09 13:55:31;;;;;;;;;99.75;98.75;9.70;75.80;;;;;;5074478;28;8768;-66
2021/12/09 13:58:10;;;;;;;;;90.25;87.00;9.60;76.20;;;;;;5074541;28;8841;-66
2021/12/09 14:00:47;;;;;;;;;93.25;92.00;9.60;76.50;;;;;;5074252;28;8756;-66
2021/12/09 14:03:24;;;;;;;;;96.25;94.25;10.20;74.60;;;;;;5074236;28;8772;-66
2021/12/09 14:05:56;;;;;;;;;95.50;93.50;10.50;72.90;;;;;;5074008;28;8870;-66